createdAt,value
2019-06-01T00:00:24.959Z,0
2019-06-01T00:01:37.307Z,0
2019-06-01T00:02:49.389Z,0
2019-06-01T00:04:01.544Z,0
2019-06-01T00:05:13.753Z,0
2019-06-01T00:06:26.042Z,0
2019-06-01T00:07:38.136Z,0
2019-06-01T00:08:50.416Z,0
2019-06-01T00:10:02.621Z,0
2019-06-01T00:11:14.725Z,0
2019-06-01T00:12:26.924Z,0
2019-06-01T00:13:39.112Z,0
2019-06-01T00:14:51.395Z,0
2019-06-01T00:16:03.587Z,0
2019-06-01T00:17:15.699Z,0
2019-06-01T00:18:28.036Z,0
2019-06-01T00:19:40.077Z,0
2019-06-01T00:20:52.357Z,0
2019-06-01T00:22:04.655Z,0
2019-06-01T00:23:16.761Z,0
2019-06-01T00:24:28.957Z,0
2019-06-01T00:25:41.188Z,0
2019-06-01T00:26:53.261Z,0
2019-06-01T00:28:05.537Z,0
2019-06-01T00:29:17.642Z,0
2019-06-01T00:30:30.015Z,0
2019-06-01T00:31:42.035Z,0
2019-06-01T00:32:54.233Z,0
2019-06-01T00:34:06.514Z,0
2019-06-01T00:35:18.702Z,0
2019-06-01T00:36:30.812Z,0
2019-06-01T00:37:43.112Z,0
2019-06-01T00:38:55.276Z,0
2019-06-01T00:40:07.486Z,0
2019-06-01T00:41:19.592Z,0
2019-06-01T00:42:31.783Z,0
2019-06-01T00:43:44.009Z,0
2019-06-01T00:44:56.286Z,0
2019-06-01T00:46:08.475Z,0
2019-06-01T00:47:20.586Z,0
2019-06-01T00:48:32.760Z,0
2019-06-01T00:49:44.952Z,0
2019-06-01T00:50:57.231Z,0
2019-06-01T00:52:09.461Z,0
2019-06-01T00:53:21.576Z,0
2019-06-01T00:54:33.770Z,0
2019-06-01T00:55:45.963Z,0
2019-06-01T00:56:58.156Z,0
2019-06-01T00:58:10.428Z,0
2019-06-01T00:59:22.609Z,0
2019-06-01T01:00:34.761Z,0
2019-06-01T01:01:47.094Z,0
2019-06-01T01:02:59.178Z,0
2019-06-01T01:04:11.301Z,0
2019-06-01T01:05:23.488Z,0
2019-06-01T01:06:35.774Z,0
2019-06-01T01:07:47.903Z,0
2019-06-01T01:09:00.130Z,0
2019-06-01T01:10:12.380Z,0
2019-06-01T01:11:24.468Z,0
2019-06-01T01:12:36.666Z,0
2019-06-01T01:13:48.948Z,0
2019-06-01T01:15:01.126Z,0
2019-06-01T01:16:13.249Z,0
2019-06-01T01:17:25.462Z,0
2019-06-01T01:18:37.651Z,0
2019-06-01T01:19:49.838Z,0
2019-06-01T01:21:02.255Z,0
2019-06-01T01:22:14.313Z,0
2019-06-01T01:23:26.495Z,0
2019-06-01T01:24:38.641Z,0
2019-06-01T01:25:50.802Z,0
2019-06-01T01:27:03.012Z,0
2019-06-01T01:28:15.281Z,0
2019-06-01T01:29:27.396Z,0
2019-06-01T01:30:39.612Z,0
2019-06-01T01:31:51.785Z,0
2019-06-01T01:33:03.982Z,0
2019-06-01T01:34:16.254Z,0
2019-06-01T01:35:28.467Z,0
2019-06-01T01:36:40.577Z,0
2019-06-01T01:37:52.773Z,0
2019-06-01T01:39:04.962Z,0
2019-06-01T01:40:17.157Z,0
2019-06-01T01:41:29.337Z,0
2019-06-01T01:42:41.644Z,0
2019-06-01T01:43:53.738Z,0
2019-06-01T01:45:06.030Z,0
2019-06-01T01:46:18.317Z,0
2019-06-01T01:47:30.315Z,0
2019-06-01T01:48:42.521Z,0
2019-06-01T01:49:54.797Z,0
2019-06-01T01:51:06.898Z,0
2019-06-01T01:52:19.104Z,0
2019-06-01T01:53:31.351Z,0
2019-06-01T01:54:43.494Z,0
2019-06-01T01:55:55.758Z,0
2019-06-01T01:57:07.973Z,0
2019-06-01T01:58:20.261Z,0
2019-06-01T01:59:32.352Z,0
2019-06-01T02:00:44.547Z,0
2019-06-01T02:01:56.690Z,0
2019-06-01T02:03:08.942Z,0
2019-06-01T02:04:21.236Z,0
2019-06-01T02:05:33.273Z,0
2019-06-01T02:06:50.981Z,0
2019-06-01T02:07:57.655Z,0
2019-06-01T02:09:09.899Z,0
2019-06-01T02:10:22.399Z,0
2019-06-01T02:11:34.307Z,0
2019-06-01T02:12:46.428Z,0
2019-06-01T02:13:58.643Z,0
2019-06-01T02:15:10.817Z,0
2019-06-01T02:16:23.018Z,0
2019-06-01T02:17:35.198Z,0
2019-06-01T02:18:47.479Z,0
2019-06-01T02:19:59.591Z,0
2019-06-01T02:21:11.876Z,0
2019-06-01T02:22:24.082Z,0
2019-06-01T02:23:36.245Z,0
2019-06-01T02:24:48.403Z,0
2019-06-01T02:26:00.800Z,0
2019-06-01T02:27:12.763Z,0
2019-06-01T02:28:24.950Z,0
2019-06-01T02:29:37.187Z,0
2019-06-01T02:30:49.465Z,0
2019-06-01T02:32:01.559Z,0
2019-06-01T02:33:13.821Z,0
2019-06-01T02:34:26.099Z,0
2019-06-01T02:35:38.125Z,0
2019-06-01T02:36:50.421Z,0
2019-06-01T02:38:02.604Z,0
2019-06-01T02:39:14.718Z,0
2019-06-01T02:40:27.000Z,0
2019-06-01T02:41:39.223Z,0
2019-06-01T02:42:51.389Z,0
2019-06-01T02:44:03.500Z,0
2019-06-01T02:45:15.699Z,0
2019-06-01T02:46:27.981Z,0
2019-06-01T02:47:40.578Z,4
2019-06-01T02:48:52.331Z,4
2019-06-01T02:50:04.564Z,4
2019-06-01T02:51:16.675Z,4
2019-06-01T02:52:33.310Z,4
2019-06-01T02:53:41.058Z,8
2019-06-01T02:54:53.339Z,4
2019-06-01T02:56:05.557Z,8
2019-06-01T02:57:17.651Z,8
2019-06-01T02:58:29.942Z,12
2019-06-01T02:59:42.034Z,12
2019-06-01T03:00:54.255Z,12
2019-06-01T03:02:06.532Z,16
2019-06-01T03:03:18.615Z,16
2019-06-01T03:04:30.805Z,16
2019-06-01T03:05:43.018Z,24
2019-06-01T03:06:55.290Z,28
2019-06-01T03:08:07.452Z,28
2019-06-01T03:09:19.683Z,36
2019-06-01T03:10:31.872Z,40
2019-06-01T03:11:43.992Z,48
2019-06-01T03:12:56.207Z,56
2019-06-01T03:14:08.377Z,60
2019-06-01T03:15:20.576Z,68
2019-06-01T03:16:32.899Z,76
2019-06-01T03:17:44.978Z,84
2019-06-01T03:18:57.151Z,96
2019-06-01T03:20:09.352Z,108
2019-06-01T03:21:21.639Z,120
2019-06-01T03:22:33.900Z,132
2019-06-01T03:23:46.027Z,148
2019-06-01T03:24:58.546Z,164
2019-06-01T03:26:10.336Z,180
2019-06-01T03:27:22.533Z,196
2019-06-01T03:28:34.704Z,220
2019-06-01T03:29:46.907Z,240
2019-06-01T03:30:59.204Z,264
2019-06-01T03:32:11.420Z,288
2019-06-01T03:33:23.485Z,312
2019-06-01T03:34:35.785Z,336
2019-06-01T03:35:48.081Z,360
2019-06-01T03:37:00.090Z,388
2019-06-01T03:38:12.360Z,412
2019-06-01T03:39:24.535Z,444
2019-06-01T03:40:36.748Z,476
2019-06-01T03:41:48.859Z,512
2019-06-01T03:43:01.067Z,556
2019-06-01T03:44:13.252Z,596
2019-06-01T03:45:25.452Z,640
2019-06-01T03:46:37.744Z,680
2019-06-01T03:47:49.836Z,720
2019-06-01T03:49:02.047Z,760
2019-06-01T03:50:14.360Z,804
2019-06-01T03:51:26.496Z,848
2019-06-01T03:52:38.695Z,896
2019-06-01T03:53:51.053Z,944
2019-06-01T03:55:03.100Z,1008
2019-06-01T03:56:15.228Z,1068
2019-06-01T03:57:27.400Z,1136
2019-06-01T03:58:39.677Z,1204
2019-06-01T03:59:51.883Z,1268
2019-06-01T04:01:04.000Z,1332
2019-06-01T04:02:16.199Z,1412
2019-06-01T04:03:28.379Z,1488
2019-06-01T04:04:40.566Z,1556
2019-06-01T04:05:52.764Z,1624
2019-06-01T04:07:05.044Z,1696
2019-06-01T04:08:17.157Z,1772
2019-06-01T04:09:29.443Z,1860
2019-06-01T04:10:41.638Z,1940
2019-06-01T04:11:53.735Z,2012
2019-06-01T04:13:06.086Z,2076
2019-06-01T04:14:22.214Z,2132
2019-06-01T04:15:30.331Z,2184
2019-06-01T04:16:42.522Z,2232
2019-06-01T04:17:54.714Z,2280
2019-06-01T04:19:06.922Z,2340
2019-06-01T04:20:19.098Z,2372
2019-06-01T04:21:31.431Z,2404
2019-06-01T04:22:43.580Z,2440
2019-06-01T04:23:55.693Z,2448
2019-06-01T04:25:07.918Z,2436
2019-06-01T04:26:20.088Z,2440
2019-06-01T04:27:32.276Z,2448
2019-06-01T04:28:44.562Z,2476
2019-06-01T04:29:56.666Z,2504
2019-06-01T04:31:08.853Z,2512
2019-06-01T04:32:21.105Z,2524
2019-06-01T04:33:33.244Z,2544
2019-06-01T04:35:57.636Z,2548
2019-06-01T04:37:09.842Z,2540
2019-06-01T04:38:22.097Z,2536
2019-06-01T04:39:34.321Z,2548
2019-06-01T04:40:46.434Z,2584
2019-06-01T04:41:58.615Z,2636
2019-06-01T04:43:10.817Z,2680
2019-06-01T04:44:23.011Z,2744
2019-06-01T04:45:35.207Z,2820
2019-06-01T04:46:47.539Z,2948
2019-06-01T04:47:59.674Z,3072
2019-06-01T04:49:11.860Z,3156
2019-06-01T04:50:23.982Z,3260
2019-06-01T04:51:36.214Z,3376
2019-06-01T04:52:48.368Z,3452
2019-06-01T04:54:00.577Z,3528
2019-06-01T04:55:12.772Z,3608
2019-06-01T04:56:24.946Z,3660
2019-06-01T04:57:37.178Z,3744
2019-06-01T04:58:49.430Z,3796
2019-06-01T05:00:01.659Z,3952
2019-06-01T05:01:13.741Z,4060
2019-06-01T05:02:25.936Z,4148
2019-06-01T05:03:38.129Z,4208
2019-06-01T05:04:50.414Z,4248
2019-06-01T05:06:02.504Z,4376
2019-06-01T05:07:14.716Z,4460
2019-06-01T05:08:26.903Z,4440
2019-06-01T05:09:39.110Z,4384
2019-06-01T05:10:51.372Z,4456
2019-06-01T05:12:03.491Z,4452
2019-06-01T05:13:15.688Z,4540
2019-06-01T05:14:27.898Z,4640
2019-06-01T05:15:40.085Z,4692
2019-06-01T05:16:52.339Z,4708
2019-06-01T05:18:04.467Z,4664
2019-06-01T05:19:16.670Z,4608
2019-06-01T05:20:28.872Z,4588
2019-06-01T05:21:41.044Z,4452
2019-06-01T05:22:53.355Z,4436
2019-06-01T05:24:05.458Z,4436
2019-06-01T05:25:17.659Z,4416
2019-06-01T05:26:29.852Z,4396
2019-06-01T05:27:42.033Z,4444
2019-06-01T05:28:54.218Z,4392
2019-06-01T05:30:06.408Z,4336
2019-06-01T05:31:18.645Z,4384
2019-06-01T05:32:30.803Z,4520
2019-06-01T05:33:42.998Z,4708
2019-06-01T05:34:55.308Z,4784
2019-06-01T05:36:07.453Z,4864
2019-06-01T05:37:19.663Z,4936
2019-06-01T05:38:35.878Z,4992
2019-06-01T05:39:43.990Z,5072
2019-06-01T05:40:56.160Z,5100
2019-06-01T05:42:08.397Z,5184
2019-06-01T05:43:20.563Z,5260
2019-06-01T05:44:32.754Z,5336
2019-06-01T05:45:45.021Z,5352
2019-06-01T05:46:57.241Z,5364
2019-06-01T05:48:09.338Z,5276
2019-06-01T05:49:21.557Z,5356
2019-06-01T05:50:33.795Z,5268
2019-06-01T05:51:51.712Z,5156
2019-06-01T05:52:58.128Z,5160
2019-06-01T05:54:10.327Z,5100
2019-06-01T05:55:22.608Z,5048
2019-06-01T05:56:34.703Z,4936
2019-06-01T05:57:46.976Z,4816
2019-06-01T05:58:59.256Z,5104
2019-06-01T06:00:11.289Z,5204
2019-06-01T06:01:23.558Z,5328
2019-06-01T06:02:35.675Z,5392
2019-06-01T06:03:47.869Z,5456
2019-06-01T06:05:00.065Z,5524
2019-06-01T06:06:12.259Z,5600
2019-06-01T06:07:24.464Z,5680
2019-06-01T06:08:36.795Z,5788
2019-06-01T06:09:48.856Z,5876
2019-06-01T06:11:01.125Z,5972
2019-06-01T06:12:13.248Z,6128
2019-06-01T06:13:25.536Z,6252
2019-06-01T06:14:37.757Z,6200
2019-06-01T06:15:49.830Z,6560
2019-06-01T06:17:02.021Z,6684
2019-06-01T06:18:14.211Z,7084
2019-06-01T06:19:26.410Z,7660
2019-06-01T06:20:38.623Z,8220
2019-06-01T06:21:50.795Z,8376
2019-06-01T06:23:03.083Z,8936
2019-06-01T06:24:15.211Z,10356
2019-06-01T06:25:29.069Z,19968
2019-06-01T06:26:40.023Z,36448
2019-06-01T06:27:51.769Z,41152
2019-06-01T06:29:03.975Z,36256
2019-06-01T06:30:16.171Z,37760
2019-06-01T06:31:28.354Z,37824
2019-06-01T06:32:40.555Z,37376
2019-06-01T06:33:52.781Z,41120
2019-06-01T06:35:05.047Z,40992
2019-06-01T06:36:17.145Z,42080
2019-06-01T06:37:29.341Z,39520
2019-06-01T06:38:41.536Z,38656
2019-06-01T06:39:53.732Z,38048
2019-06-01T06:41:06.217Z,39904
2019-06-01T06:42:18.183Z,43936
2019-06-01T06:43:30.314Z,46688
2019-06-01T06:44:42.509Z,44960
2019-06-01T06:45:54.698Z,44192
2019-06-01T06:47:07.080Z,43104
2019-06-01T06:48:19.183Z,49888
2019-06-01T06:49:31.295Z,49760
2019-06-01T06:50:43.479Z,52480
2019-06-01T06:51:55.680Z,53920
2019-06-01T06:53:07.965Z,53728
2019-06-01T06:54:20.055Z,52864
2019-06-01T06:55:32.327Z,55040
2019-06-01T06:56:44.446Z,58208
2019-06-01T06:57:56.633Z,59520
2019-06-01T06:59:08.941Z,58976
2019-06-01T07:00:21.197Z,58720
2019-06-01T07:01:33.232Z,61312
2019-06-01T07:02:45.412Z,60192
2019-06-01T07:03:57.697Z,59968
2019-06-01T07:05:09.796Z,63072
2019-06-01T07:06:22.089Z,63008
2019-06-01T07:07:34.183Z,59840
2019-06-01T07:08:46.381Z,58720
2019-06-01T07:09:58.584Z,61088
2019-06-01T07:11:10.871Z,62368
2019-06-01T07:12:23.350Z,63936
2019-06-01T07:13:35.162Z,60096
2019-06-01T07:14:47.597Z,60480
2019-06-01T07:15:59.541Z,68448
2019-06-01T07:17:11.742Z,65408
2019-06-01T07:18:23.938Z,59424
2019-06-01T07:19:36.249Z,61952
2019-06-01T07:20:48.311Z,65312
2019-06-01T07:22:00.581Z,63904
2019-06-01T07:23:12.692Z,62752
2019-06-01T07:24:26.230Z,61600
2019-06-01T07:25:37.093Z,64448
2019-06-01T07:26:49.304Z,64352
2019-06-01T07:28:01.486Z,65216
2019-06-01T07:29:13.655Z,59808
2019-06-01T07:30:25.866Z,56064
2019-06-01T07:31:38.081Z,61248
2019-06-01T07:32:50.249Z,62144
2019-06-01T07:34:02.603Z,58848
2019-06-01T07:35:14.859Z,60160
2019-06-01T07:36:26.841Z,68512
2019-06-01T07:37:39.005Z,72768
2019-06-01T07:38:52.343Z,71488
2019-06-01T07:40:03.400Z,70912
2019-06-01T07:41:15.595Z,71424
2019-06-01T07:42:27.821Z,69952
2019-06-01T07:43:39.990Z,68480
2019-06-01T07:44:52.206Z,68800
2019-06-01T07:46:04.379Z,71712
2019-06-01T07:47:16.645Z,72096
2019-06-01T07:48:28.769Z,71968
2019-06-01T07:49:41.009Z,70688
2019-06-01T07:50:53.141Z,73664
2019-06-01T07:52:06.048Z,77824
2019-06-01T07:53:17.546Z,79776
2019-06-01T07:54:29.745Z,78784
2019-06-01T07:55:42.009Z,79968
2019-06-01T07:56:54.207Z,80128
2019-06-01T07:58:06.299Z,81696
2019-06-01T07:59:18.593Z,82976
2019-06-01T08:00:30.747Z,80960
2019-06-01T08:01:43.037Z,81152
2019-06-01T08:02:55.171Z,83328
2019-06-01T08:04:07.337Z,84512
2019-06-01T08:05:19.472Z,83104
2019-06-01T08:06:31.697Z,81120
2019-06-01T08:07:43.977Z,84416
2019-06-01T08:08:59.029Z,83200
2019-06-01T08:10:08.242Z,82496
2019-06-01T08:11:20.532Z,80224
2019-06-01T08:12:32.629Z,75936
2019-06-01T08:13:44.843Z,76736
2019-06-01T08:14:57.027Z,78144
2019-06-01T08:16:09.235Z,83424
2019-06-01T08:17:21.420Z,83776
2019-06-01T08:18:33.716Z,85344
2019-06-01T08:19:45.885Z,82944
2019-06-01T08:20:57.993Z,80128
2019-06-01T08:22:10.234Z,80960
2019-06-01T08:23:22.553Z,79424
2019-06-01T08:24:34.608Z,80320
2019-06-01T08:25:46.765Z,79808
2019-06-01T08:26:59.047Z,84320
2019-06-01T08:28:11.157Z,83904
2019-06-01T08:29:23.350Z,84160
2019-06-01T08:30:35.541Z,83456
2019-06-01T08:31:47.952Z,86336
2019-06-01T08:32:59.942Z,86336
2019-06-01T08:34:12.157Z,86912
2019-06-01T08:35:24.432Z,87392
2019-06-01T08:36:36.653Z,89952
2019-06-01T08:37:49.130Z,90400
2019-06-01T08:39:00.934Z,92096
2019-06-01T08:40:13.190Z,92288
2019-06-01T08:41:25.383Z,91552
2019-06-01T08:42:37.514Z,90208
2019-06-01T08:43:49.768Z,88992
2019-06-01T08:45:03.093Z,91968
2019-06-01T08:46:14.077Z,91520
2019-06-01T08:47:26.446Z,91136
2019-06-01T08:48:38.477Z,93120
2019-06-01T08:49:50.654Z,93440
2019-06-01T08:51:02.940Z,95744
2019-06-01T08:52:15.077Z,89792
2019-06-01T08:53:27.262Z,94784
2019-06-01T08:54:39.555Z,91904
2019-06-01T08:55:52.242Z,94048
2019-06-01T08:57:03.833Z,88416
2019-06-01T08:58:16.035Z,89600
2019-06-01T08:59:28.319Z,92416
2019-06-01T09:00:40.424Z,90816
2019-06-01T09:01:52.631Z,93408
2019-06-01T09:03:04.966Z,89248
2019-06-01T09:04:17.007Z,93472
2019-06-01T09:05:29.209Z,91200
2019-06-01T09:06:41.398Z,90496
2019-06-01T09:07:53.580Z,86464
2019-06-01T09:09:05.866Z,82176
2019-06-01T09:10:18.134Z,93248
2019-06-01T09:11:30.261Z,92704
2019-06-01T09:12:42.362Z,94144
2019-06-01T09:13:54.561Z,85792
2019-06-01T09:15:06.752Z,87968
2019-06-01T09:16:19.030Z,86944
2019-06-01T09:17:31.147Z,88768
2019-06-01T09:18:43.411Z,89792
2019-06-01T09:19:55.535Z,85504
2019-06-01T09:21:07.724Z,87264
2019-06-01T09:22:19.920Z,84928
2019-06-01T09:23:32.225Z,78784
2019-06-01T09:24:44.447Z,80064
2019-06-01T09:25:56.498Z,84064
2019-06-01T09:27:08.700Z,83392
2019-06-01T09:28:20.987Z,89696
2019-06-01T09:29:33.189Z,91072
2019-06-01T09:30:45.288Z,93824
2019-06-01T09:31:57.572Z,90560
2019-06-01T09:33:09.681Z,85984
2019-06-01T09:34:21.901Z,84512
2019-06-01T09:35:34.201Z,89728
2019-06-01T09:36:46.256Z,92000
2019-06-01T09:37:58.452Z,94048
2019-06-01T09:39:10.735Z,89984
2019-06-01T09:40:22.857Z,89952
2019-06-01T09:41:35.039Z,94880
2019-06-01T09:42:47.251Z,95456
2019-06-01T09:43:59.602Z,97408
2019-06-01T09:45:11.628Z,88512
2019-06-01T09:46:23.993Z,93696
2019-06-01T09:47:36.175Z,90496
2019-06-01T09:48:48.204Z,86912
2019-06-01T09:50:00.405Z,90784
2019-06-01T09:51:12.620Z,91840
2019-06-01T09:52:24.882Z,94560
2019-06-01T09:53:37.106Z,96608
2019-06-01T09:54:49.232Z,94944
2019-06-01T09:56:01.403Z,90304
2019-06-01T09:57:13.575Z,81952
2019-06-01T09:58:25.767Z,82464
2019-06-01T09:59:38.056Z,87712
2019-06-01T10:00:50.244Z,92448
2019-06-01T10:02:02.353Z,99552
2019-06-01T10:03:14.630Z,99360
2019-06-01T10:04:26.800Z,99904
2019-06-01T10:05:39.038Z,97984
2019-06-01T10:06:51.258Z,95648
2019-06-01T10:08:03.418Z,95488
2019-06-01T10:09:15.603Z,96128
2019-06-01T10:10:27.734Z,94848
2019-06-01T10:11:40.034Z,95296
2019-06-01T10:12:52.220Z,92960
2019-06-01T10:14:04.312Z,94624
2019-06-01T10:15:16.587Z,97408
2019-06-01T10:16:28.742Z,94272
2019-06-01T10:17:40.941Z,92032
2019-06-01T10:18:53.095Z,94272
2019-06-01T10:20:05.292Z,95328
2019-06-01T10:21:17.475Z,95808
2019-06-01T10:22:29.762Z,95168
2019-06-01T10:23:42.062Z,98816
2019-06-01T10:24:58.362Z,96320
2019-06-01T10:26:07.619Z,95936
2019-06-01T10:27:20.965Z,98368
2019-06-01T10:28:34.187Z,97632
2019-06-01T10:29:42.950Z,100480
2019-06-01T10:30:55.036Z,98784
2019-06-01T10:32:07.404Z,100768
2019-06-01T10:33:19.524Z,100288
2019-06-01T10:34:31.719Z,102400
2019-06-01T10:35:43.909Z,102272
2019-06-01T10:36:56.109Z,101536
2019-06-01T10:38:08.211Z,89696
2019-06-01T10:39:20.501Z,95552
2019-06-01T10:40:32.609Z,89792
2019-06-01T10:41:44.884Z,92864
2019-06-01T10:42:57.004Z,98080
2019-06-01T10:45:21.403Z,102944
2019-06-01T10:46:33.770Z,94112
2019-06-01T10:47:45.891Z,95840
2019-06-01T10:48:58.069Z,96736
2019-06-01T10:50:10.162Z,93696
2019-06-01T10:51:22.482Z,95232
2019-06-01T10:52:34.643Z,93824
2019-06-01T10:53:47.860Z,91584
2019-06-01T10:55:03.793Z,86944
2019-06-01T10:56:11.302Z,93504
2019-06-01T10:57:23.427Z,90048
2019-06-01T10:58:35.646Z,94720
2019-06-01T10:59:47.836Z,90048
2019-06-01T11:01:00.089Z,89248
2019-06-01T11:02:12.228Z,93184
2019-06-01T11:03:24.486Z,91360
2019-06-01T11:04:36.529Z,92288
2019-06-01T11:05:48.829Z,91968
2019-06-01T11:07:00.995Z,92896
2019-06-01T11:08:13.195Z,88448
2019-06-01T11:09:25.343Z,93440
2019-06-01T11:10:37.608Z,95840
2019-06-01T11:11:49.775Z,97088
2019-06-01T11:13:02.010Z,96384
2019-06-01T11:14:14.109Z,95456
2019-06-01T11:15:26.372Z,98432
2019-06-01T11:16:38.487Z,97472
2019-06-01T11:17:50.863Z,96704
2019-06-01T11:19:02.869Z,98656
2019-06-01T11:20:15.183Z,92672
2019-06-01T11:21:27.367Z,95616
2019-06-01T11:22:39.557Z,94240
2019-06-01T11:23:51.738Z,97920
2019-06-01T11:25:04.015Z,98784
2019-06-01T11:26:16.152Z,99936
2019-06-01T11:27:34.148Z,93408
2019-06-01T11:28:40.455Z,91136
2019-06-01T11:29:52.689Z,90112
2019-06-01T11:31:04.823Z,91520
2019-06-01T11:32:17.113Z,92864
2019-06-01T11:33:29.231Z,94112
2019-06-01T11:34:41.550Z,92096
2019-06-01T11:35:53.714Z,89600
2019-06-01T11:37:05.972Z,63392
2019-06-01T11:38:18.008Z,18720
2019-06-01T11:39:30.350Z,14396
2019-06-01T11:40:42.409Z,13300
2019-06-01T11:41:54.690Z,12572
2019-06-01T11:43:06.804Z,12056
2019-06-01T11:44:19.074Z,11704
2019-06-01T11:45:31.164Z,11404
2019-06-01T11:46:43.531Z,11160
2019-06-01T11:47:55.652Z,11000
2019-06-01T11:49:07.853Z,10880
2019-06-01T11:50:19.966Z,10804
2019-06-01T11:51:35.953Z,10720
2019-06-01T11:52:44.357Z,10608
2019-06-01T11:53:56.630Z,10512
2019-06-01T11:55:08.748Z,10368
2019-06-01T11:56:21.072Z,10284
2019-06-01T11:57:33.127Z,10180
2019-06-01T11:58:45.403Z,10060
2019-06-01T11:59:57.591Z,9968
2019-06-01T12:01:09.792Z,9856
2019-06-01T12:02:21.886Z,9776
2019-06-01T12:03:34.173Z,9640
2019-06-01T12:04:46.278Z,9560
2019-06-01T12:05:58.478Z,9452
2019-06-01T12:07:10.686Z,9368
2019-06-01T12:08:22.947Z,9244
2019-06-01T12:09:35.061Z,9156
2019-06-01T12:10:47.332Z,9132
2019-06-01T12:11:59.540Z,9124
2019-06-01T12:13:15.148Z,9108
2019-06-01T12:14:23.822Z,9008
2019-06-01T12:15:36.322Z,8932
2019-06-01T12:16:48.205Z,8828
2019-06-01T12:18:00.564Z,8772
2019-06-01T12:19:12.591Z,8724
2019-06-01T12:20:24.780Z,8640
2019-06-01T12:21:36.992Z,8560
2019-06-01T12:22:49.175Z,8504
2019-06-01T12:24:01.457Z,8448
2019-06-01T12:25:13.779Z,8368
2019-06-01T12:26:25.756Z,8304
2019-06-01T12:27:38.053Z,8224
2019-06-01T12:28:51.212Z,8096
2019-06-01T12:30:02.418Z,8052
2019-06-01T12:31:14.530Z,8024
2019-06-01T12:32:28.946Z,7964
2019-06-01T12:33:38.955Z,7916
2019-06-01T12:34:51.324Z,7836
2019-06-01T12:36:03.398Z,7756
2019-06-01T12:37:15.494Z,7760
2019-06-01T12:38:27.682Z,7680
2019-06-01T12:39:39.968Z,7596
2019-06-01T12:40:52.118Z,7472
2019-06-01T12:42:04.345Z,7384
2019-06-01T12:43:16.556Z,7280
2019-06-01T12:44:28.819Z,7156
2019-06-01T12:45:40.883Z,7044
2019-06-01T12:46:53.179Z,6936
2019-06-01T12:48:05.333Z,6892
2019-06-01T12:49:17.594Z,6868
2019-06-01T12:50:29.701Z,6840
2019-06-01T12:51:41.959Z,6776
2019-06-01T12:52:54.006Z,6780
2019-06-01T12:54:06.306Z,6768
2019-06-01T12:55:18.409Z,6812
2019-06-01T12:56:30.670Z,6832
2019-06-01T12:57:42.783Z,6852
2019-06-01T12:58:55.066Z,6868
2019-06-01T13:00:07.322Z,6848
2019-06-01T13:01:19.536Z,6804
2019-06-01T13:02:31.560Z,6812
2019-06-01T13:03:43.831Z,6772
2019-06-01T13:04:55.935Z,6752
2019-06-01T13:06:08.247Z,6724
2019-06-01T13:07:20.399Z,6688
2019-06-01T13:08:32.681Z,6660
2019-06-01T13:09:44.719Z,6636
2019-06-01T13:10:56.990Z,6600
2019-06-01T13:12:09.274Z,6532
2019-06-01T13:13:21.346Z,6492
2019-06-01T13:14:33.485Z,6472
2019-06-01T13:15:45.778Z,6460
2019-06-01T13:16:57.934Z,6428
2019-06-01T13:18:10.158Z,6388
2019-06-01T13:19:22.284Z,6340
2019-06-01T13:20:34.468Z,6272
2019-06-01T13:21:46.838Z,6220
2019-06-01T13:22:58.947Z,6188
2019-06-01T13:24:11.126Z,6136
2019-06-01T13:25:23.252Z,6084
2019-06-01T13:26:35.424Z,6036
2019-06-01T13:27:51.246Z,5992
2019-06-01T13:28:59.809Z,5924
2019-06-01T13:30:12.091Z,5880
2019-06-01T13:31:26.855Z,5856
2019-06-01T13:32:40.445Z,5872
2019-06-01T13:33:48.597Z,5880
2019-06-01T13:35:00.863Z,5904
2019-06-01T13:36:13.091Z,5912
2019-06-01T13:37:25.270Z,5880
2019-06-01T13:38:37.383Z,5792
2019-06-01T13:39:49.643Z,5756
2019-06-01T13:41:01.842Z,5704
2019-06-01T13:42:13.922Z,5692
2019-06-01T13:43:26.164Z,5676
2019-06-01T13:44:38.416Z,5676
2019-06-01T13:45:50.813Z,5652
2019-06-01T13:47:02.801Z,5592
2019-06-01T13:48:14.988Z,5552
2019-06-01T13:49:27.174Z,5580
2019-06-01T13:50:39.363Z,5600
2019-06-01T13:51:51.672Z,5604
2019-06-01T13:53:03.667Z,5568
2019-06-01T13:54:15.959Z,5468
2019-06-01T13:55:31.839Z,5392
2019-06-01T13:56:40.340Z,5360
2019-06-01T13:57:52.534Z,5380
2019-06-01T13:59:04.728Z,5372
2019-06-01T14:00:16.945Z,5336
2019-06-01T14:01:30.157Z,5296
2019-06-01T14:02:41.217Z,5252
2019-06-01T14:03:53.499Z,5212
2019-06-01T14:05:05.741Z,5188
2019-06-01T14:06:17.903Z,5156
2019-06-01T14:07:29.989Z,5136
2019-06-01T14:08:42.198Z,5108
2019-06-01T14:09:54.417Z,5048
2019-06-01T14:11:06.663Z,5036
2019-06-01T14:12:18.862Z,5004
2019-06-01T14:13:31.069Z,4964
2019-06-01T14:14:43.158Z,4916
2019-06-01T14:15:55.444Z,4856
2019-06-01T14:17:07.875Z,4824
2019-06-01T14:18:19.818Z,4784
2019-06-01T14:19:32.461Z,4740
2019-06-01T14:20:44.355Z,4696
2019-06-01T14:21:56.396Z,4680
2019-06-01T14:23:08.519Z,4664
2019-06-01T14:24:20.788Z,4632
2019-06-01T14:25:32.899Z,4596
2019-06-01T14:26:45.081Z,4544
2019-06-01T14:27:57.363Z,4500
2019-06-01T14:29:09.478Z,4448
2019-06-01T14:30:21.854Z,4400
2019-06-01T14:31:33.893Z,4372
2019-06-01T14:32:46.056Z,4376
2019-06-01T14:33:58.252Z,4388
2019-06-01T14:35:10.545Z,4396
2019-06-01T14:36:22.719Z,4384
2019-06-01T14:37:34.827Z,4384
2019-06-01T14:38:50.940Z,4408
2019-06-01T14:39:59.296Z,4440
2019-06-01T14:41:11.420Z,4452
2019-06-01T14:42:23.687Z,4444
2019-06-01T14:43:35.866Z,4428
2019-06-01T14:44:48.069Z,4408
2019-06-01T14:46:00.182Z,4376
2019-06-01T14:47:12.450Z,4356
2019-06-01T14:48:24.651Z,4356
2019-06-01T14:49:36.926Z,4356
2019-06-01T14:50:48.965Z,4360
2019-06-01T14:52:01.226Z,4348
2019-06-01T14:53:13.358Z,4328
2019-06-01T14:54:25.730Z,4300
2019-06-01T14:55:37.718Z,4268
2019-06-01T14:56:49.993Z,4252
2019-06-01T14:58:02.120Z,4232
2019-06-01T14:59:14.298Z,4204
2019-06-01T15:00:26.587Z,4172
2019-06-01T15:01:38.814Z,4136
2019-06-01T15:02:50.892Z,4100
2019-06-01T15:04:03.888Z,4064
2019-06-01T15:05:15.276Z,4024
2019-06-01T15:06:27.627Z,3992
2019-06-01T15:07:39.654Z,3964
2019-06-01T15:08:51.931Z,3932
2019-06-01T15:10:04.135Z,3900
2019-06-01T15:11:16.315Z,3868
2019-06-01T15:12:28.524Z,3824
2019-06-01T15:13:40.718Z,3800
2019-06-01T15:14:52.834Z,3776
2019-06-01T15:16:05.093Z,3756
2019-06-01T15:17:17.197Z,3736
2019-06-01T15:18:29.499Z,3712
2019-06-01T15:19:41.590Z,3696
2019-06-01T15:20:53.879Z,3680
2019-06-01T15:22:06.043Z,3664
2019-06-01T15:23:18.328Z,3656
2019-06-01T15:24:30.534Z,3636
2019-06-01T15:25:42.637Z,3628
2019-06-01T15:26:54.750Z,3608
2019-06-01T15:28:07.116Z,3576
2019-06-01T15:29:19.210Z,3548
2019-06-01T15:30:31.405Z,3512
2019-06-01T15:31:43.517Z,3488
2019-06-01T15:32:55.806Z,3456
2019-06-01T15:34:07.984Z,3420
2019-06-01T15:35:20.177Z,3396
2019-06-01T15:36:32.382Z,3380
2019-06-01T15:37:44.571Z,3368
2019-06-01T15:38:56.689Z,3360
2019-06-01T15:40:09.048Z,3344
2019-06-01T15:41:21.165Z,3324
2019-06-01T15:42:33.363Z,3304
2019-06-01T15:43:45.538Z,3300
2019-06-01T15:44:57.992Z,3292
2019-06-01T15:46:09.928Z,3296
2019-06-01T15:47:22.175Z,3296
2019-06-01T15:48:37.756Z,3288
2019-06-01T15:49:51.422Z,3276
2019-06-01T15:50:58.606Z,3260
2019-06-01T15:52:10.888Z,3248
2019-06-01T15:53:22.989Z,3232
2019-06-01T15:54:35.282Z,3216
2019-06-01T15:55:47.382Z,3200
2019-06-01T15:56:59.672Z,3188
2019-06-01T15:58:11.770Z,3172
2019-06-01T15:59:24.042Z,3164
2019-06-01T16:00:36.231Z,3152
2019-06-01T16:01:48.519Z,3132
2019-06-01T16:03:00.536Z,3116
2019-06-01T16:04:12.964Z,3100
2019-06-01T16:05:25.116Z,3088
2019-06-01T16:06:37.352Z,3072
2019-06-01T16:07:49.327Z,3056
2019-06-01T16:09:01.702Z,3040
2019-06-01T16:10:13.712Z,3024
2019-06-01T16:11:26.055Z,3012